Quick Links (Output Below):   Max & Min Temps   /   Climate Reports   /   Zone Forecasts
River Forecasts   /   Forestry Forecasts   /   Aviation Forecasts   /   Radars   /   Features

Terminal Aerodrome Forecast (Texarkana)

Pick a Site:
Arkadelphia | El Dorado | Fayetteville | Fort Smith | Harrison | Highfill | Hot Springs | Jonesboro
Little Rock | Monticello | Mountain Home | Pine Bluff | Texarkana
 Forecast 

KTXK 302326Z 3100/3124 05003KT P6SM SKC
      TEMPO 3109/3113 5SM BR
     FM311400 04006KT P6SM SKC
     FM311800 04006KT P6SM SCT040=


 Latest METARs (Observations) 
How to Decode METARs
01Z KTXK 310053Z 00000KT 8SM CLR 28/24 A2995 RMK AO2 SLP136
         T02780239
         
00Z KTXK 302353Z 05003KT 9SM CLR 29/24 A2995 RMK AO2 SLP136 T02940239
         10339 20294 56010
         
***** Today's Observations (Above) *****


23Z KTXK 302253Z VRB06KT 8SM VCTS CLR 31/23 A2996 RMK AO2 LTG DSNT SW
         SLP140 T03110228
         
22Z KTXK 302153Z 07005KT 10SM FEW026 32/20 A2996 RMK AO2 SLP141
         T03220200
         
21Z KTXK 302053Z VRB04KT 10SM FEW046 FEW120 33/22 A2998 RMK AO2 SLP146
         T03330222 56021
         
20Z KTXK 301953Z VRB05KT 10SM FEW042 33/22 A3000 RMK AO2 SLP152
         T03280222
         
19Z KTXK 301853Z VRB04KT 10SM CLR 33/23 A3002 RMK AO2 SLP160
         T03280228
         
18Z KTXK 301753Z 04005KT 10SM FEW037 33/23 A3004 RMK AO2 SLP167
         T03280233 10328 20233 58003
         
17Z KTXK 301653Z 09004KT 9SM CLR 31/24 A3006 RMK AO2 SLP173
         T03110239
         
16Z KTXK 301553Z 02004KT 8SM CLR 30/24 A3006 RMK AO2 SLP173
         T03000244
         
***** Yesterday's Observations (Above) *****


Back to Main Page
http://www.srh.noaa.gov/lzk/qfcst.php

USA.gov is the U.S. government's official web portal to all federal, state and local government web resources and services.